Hlavní strana
METAR-TAF:

METAR-TAF

Letiště :

Lappeenranta, Finsko

zeměpisná šířka: 61-02-45N, zeměpisná délka: 028-08-55E, výška: 106 m

Aktuální stav počasí

Zpráva byla vytvořena před 25 minutami, v 21:50 UTC
Západoseverozápadní vítr 7 kt, proměnlivý mezi jihozápadním a severním
Teplota -1°C
Vlhkost vzduchu 86%
Tlak 1001 hPa
Viditelnost 10 km a více
Zataženo ve výšce 1300 ft

METAR: EFLP 252150Z AUTO 30007KT 230V010 9999 OVC013 M01/M03 Q1001

Čas: 00:15 (22:15 UTC)


TAF: chybějící

Stav a předpovědi počasí z více než 4 000 letišť (zprávy METAR a TAF).

Červené a žluté tečky na mapě představují dostupné meteorologické stanice.

Když kurzor umístíte na tečku, zobrazí se název stanice.

Pak kliknutím zobrazíte stav a předpověď počasí.

Chcete-li změnit mapu, kliknutím na zelené tlačítko se znaménkem +mapu přiblížíte, kliknutím na zelené tlačítko se znaménkem – mapu oddálíte a kliknutím na zelené šipky přejdete na sousední mapy.


METAR-TAF: